sensor_id;sensor_type;location;lat;lon;timestamp;pressure;altitude;pressure_sealevel;temperature;humidity
14253;BME280;7210;51.502;10.722;2024-03-07T00:01:08;100515.59;;;2.74;100.00
14253;BME280;7210;51.502;10.722;2024-03-07T00:03:35;100524.97;;;2.84;100.00
14253;BME280;7210;51.502;10.722;2024-03-07T00:06:02;100523.66;;;2.88;100.00
14253;BME280;7210;51.502;10.722;2024-03-07T00:08:38;100517.81;;;2.94;100.00
14253;BME280;7210;51.502;10.722;2024-03-07T00:11:06;100519.00;;;3.00;100.00
14253;BME280;7210;51.502;10.722;2024-03-07T00:13:35;100520.66;;;3.09;100.00
14253;BME280;7210;51.502;10.722;2024-03-07T00:16:02;100517.59;;;3.13;100.00
14253;BME280;7210;51.502;10.722;2024-03-07T00:18:30;100514.72;;;3.24;100.00
14253;BME280;7210;51.502;10.722;2024-03-07T00:20:57;100508.34;;;3.27;100.00
14253;BME280;7210;51.502;10.722;2024-03-07T00:23:24;100515.09;;;3.37;100.00
14253;BME280;7210;51.502;10.722;2024-03-07T00:25:52;100511.81;;;3.35;100.00
14253;BME280;7210;51.502;10.722;2024-03-07T00:28:21;100495.47;;;3.33;100.00
14253;BME280;7210;51.502;10.722;2024-03-07T00:30:48;100506.28;;;3.38;100.00
14253;BME280;7210;51.502;10.722;2024-03-07T00:33:15;100511.69;;;3.45;100.00
14253;BME280;7210;51.502;10.722;2024-03-07T00:35:44;100482.06;;;3.36;100.00
14253;BME280;7210;51.502;10.722;2024-03-07T00:38:11;100496.66;;;3.47;100.00
14253;BME280;7210;51.502;10.722;2024-03-07T00:40:38;100500.41;;;3.52;100.00
14253;BME280;7210;51.502;10.722;2024-03-07T00:43:05;100495.53;;;3.57;100.00
14253;BME280;7210;51.502;10.722;2024-03-07T00:45:39;100491.94;;;3.58;100.00
14253;BME280;7210;51.502;10.722;2024-03-07T00:48:06;100481.47;;;3.58;100.00
14253;BME280;7210;51.502;10.722;2024-03-07T00:50:33;100482.63;;;3.55;100.00
14253;BME280;7210;51.502;10.722;2024-03-07T00:53:00;100471.66;;;3.52;100.00
14253;BME280;7210;51.502;10.722;2024-03-07T00:55:28;100470.38;;;3.48;100.00
14253;BME280;7210;51.502;10.722;2024-03-07T00:57:55;100474.28;;;3.52;100.00
14253;BME280;7210;51.502;10.722;2024-03-07T01:00:26;100469.22;;;3.51;100.00
14253;BME280;7210;51.502;10.722;2024-03-07T01:02:55;100468.91;;;3.53;100.00
14253;BME280;7210;51.502;10.722;2024-03-07T01:05:23;100462.19;;;3.51;100.00
14253;BME280;7210;51.502;10.722;2024-03-07T01:07:50;100466.44;;;3.52;100.00
14253;BME280;7210;51.502;10.722;2024-03-07T01:10:17;100446.19;;;3.46;100.00
14253;BME280;7210;51.502;10.722;2024-03-07T01:12:44;100465.81;;;3.58;100.00
14253;BME280;7210;51.502;10.722;2024-03-07T01:15:11;100455.34;;;3.58;100.00
14253;BME280;7210;51.502;10.722;2024-03-07T01:17:38;100473.50;;;3.59;100.00
14253;BME280;7210;51.502;10.722;2024-03-07T01:20:08;100459.44;;;3.60;100.00
14253;BME280;7210;51.502;10.722;2024-03-07T01:22:38;100463.03;;;3.59;100.00
14253;BME280;7210;51.502;10.722;2024-03-07T01:25:06;100465.50;;;3.61;100.00
14253;BME280;7210;51.502;10.722;2024-03-07T01:27:33;100472.38;;;3.70;100.00
14253;BME280;7210;51.502;10.722;2024-03-07T01:30:01;100476.63;;;3.71;100.00
14253;BME280;7210;51.502;10.722;2024-03-07T01:32:28;100478.25;;;3.72;100.00
14253;BME280;7210;51.502;10.722;2024-03-07T01:34:56;100487.41;;;3.76;100.00
14253;BME280;7210;51.502;10.722;2024-03-07T01:37:24;100484.47;;;3.79;100.00
14253;BME280;7210;51.502;10.722;2024-03-07T01:39:51;100485.97;;;3.81;100.00
14253;BME280;7210;51.502;10.722;2024-03-07T01:42:18;100475.78;;;3.78;100.00
14253;BME280;7210;51.502;10.722;2024-03-07T01:44:46;100477.28;;;3.81;100.00
14253;BME280;7210;51.502;10.722;2024-03-07T01:47:14;100476.97;;;3.84;100.00
14253;BME280;7210;51.502;10.722;2024-03-07T01:49:42;100469.78;;;3.86;100.00
14253;BME280;7210;51.502;10.722;2024-03-07T01:52:10;100471.41;;;3.87;100.00
14253;BME280;7210;51.502;10.722;2024-03-07T01:54:46;100466.19;;;3.87;100.00
14253;BME280;7210;51.502;10.722;2024-03-07T01:57:16;100454.38;;;3.83;100.00
14253;BME280;7210;51.502;10.722;2024-03-07T01:59:44;100458.66;;;3.92;100.00
14253;BME280;7210;51.502;10.722;2024-03-07T02:02:12;100447.22;;;3.85;100.00
14253;BME280;7210;51.502;10.722;2024-03-07T02:04:44;100442.31;;;3.82;100.00
14253;BME280;7210;51.502;10.722;2024-03-07T02:07:11;100442.16;;;3.83;100.00
14253;BME280;7210;51.502;10.722;2024-03-07T02:09:38;100446.72;;;3.81;100.00
14253;BME280;7210;51.502;10.722;2024-03-07T02:12:07;100447.72;;;3.80;100.00
14253;BME280;7210;51.502;10.722;2024-03-07T02:14:35;100447.22;;;3.85;100.00
14253;BME280;7210;51.502;10.722;2024-03-07T02:17:02;100437.41;;;3.87;100.00
14253;BME280;7210;51.502;10.722;2024-03-07T02:19:30;100440.03;;;3.87;100.00
14253;BME280;7210;51.502;10.722;2024-03-07T02:21:59;100431.03;;;3.89;100.00
14253;BME280;7210;51.502;10.722;2024-03-07T02:24:26;100420.72;;;3.80;100.00
14253;BME280;7210;51.502;10.722;2024-03-07T02:26:53;100432.19;;;3.95;100.00
14253;BME280;7210;51.502;10.722;2024-03-07T02:29:20;100422.38;;;3.89;100.00
14253;BME280;7210;51.502;10.722;2024-03-07T02:31:47;100426.31;;;3.93;100.00
14253;BME280;7210;51.502;10.722;2024-03-07T02:34:20;100426.94;;;3.95;100.00
14253;BME280;7210;51.502;10.722;2024-03-07T02:36:47;100423.00;;;3.99;100.00
14253;BME280;7210;51.502;10.722;2024-03-07T02:39:15;100432.81;;;4.05;100.00
14253;BME280;7210;51.502;10.722;2024-03-07T02:41:42;100425.31;;;4.10;100.00
14253;BME280;7210;51.502;10.722;2024-03-07T02:44:10;100424.97;;;4.13;100.00
14253;BME280;7210;51.502;10.722;2024-03-07T02:46:38;100431.53;;;4.17;100.00
14253;BME280;7210;51.502;10.722;2024-03-07T02:49:05;100423.03;;;4.15;100.00
14253;BME280;7210;51.502;10.722;2024-03-07T02:51:32;100415.31;;;4.13;100.00
14253;BME280;7210;51.502;10.722;2024-03-07T02:54:02;100420.06;;;4.10;100.00
14253;BME280;7210;51.502;10.722;2024-03-07T02:56:39;100401.44;;;3.97;100.00
14253;BME280;7210;51.502;10.722;2024-03-07T02:59:06;100416.13;;;4.06;100.00
14253;BME280;7210;51.502;10.722;2024-03-07T03:01:34;100412.22;;;4.02;100.00
14253;BME280;7210;51.502;10.722;2024-03-07T03:04:01;100410.59;;;4.01;100.00
14253;BME280;7210;51.502;10.722;2024-03-07T03:06:28;100412.53;;;3.99;100.00
14253;BME280;7210;51.502;10.722;2024-03-07T03:08:56;100422.34;;;4.05;100.00
14253;BME280;7210;51.502;10.722;2024-03-07T03:11:26;100432.50;;;4.08;100.00
14253;BME280;7210;51.502;10.722;2024-03-07T03:13:54;100424.31;;;4.11;100.00
14253;BME280;7210;51.502;10.722;2024-03-07T03:16:21;100421.34;;;4.14;100.00
14253;BME280;7210;51.502;10.722;2024-03-07T03:18:48;100393.91;;;4.02;100.00
14253;BME280;7210;51.502;10.722;2024-03-07T03:21:15;100422.69;;;4.18;100.00
14253;BME280;7210;51.502;10.722;2024-03-07T03:23:42;100427.56;;;4.21;100.00
14253;BME280;7210;51.502;10.722;2024-03-07T03:26:09;100425.44;;;4.24;100.00
14253;BME280;7210;51.502;10.722;2024-03-07T03:28:38;100435.09;;;4.32;100.00
14253;BME280;7210;51.502;10.722;2024-03-07T03:31:09;100427.53;;;4.37;100.00
14253;BME280;7210;51.502;10.722;2024-03-07T03:33:39;100432.59;;;4.46;100.00
14253;BME280;7210;51.502;10.722;2024-03-07T03:36:07;100440.75;;;4.67;100.00
14253;BME280;7210;51.502;10.722;2024-03-07T03:38:34;100443.63;;;4.88;100.00
14253;BME280;7210;51.502;10.722;2024-03-07T03:41:02;100413.81;;;4.89;100.00
14253;BME280;7210;51.502;10.722;2024-03-07T03:43:30;100418.56;;;4.94;100.00
14253;BME280;7210;51.502;10.722;2024-03-07T03:45:58;100415.91;;;5.02;100.00
14253;BME280;7210;51.502;10.722;2024-03-07T03:48:26;100403.78;;;5.01;100.00
14253;BME280;7210;51.502;10.722;2024-03-07T03:50:53;100401.84;;;4.95;100.00
14253;BME280;7210;51.502;10.722;2024-03-07T03:53:20;100408.72;;;4.96;100.00
14253;BME280;7210;51.502;10.722;2024-03-07T03:55:47;100404.47;;;4.95;100.00
14253;BME280;7210;51.502;10.722;2024-03-07T03:58:15;100410.31;;;5.05;100.00
14253;BME280;7210;51.502;10.722;2024-03-07T04:00:42;100399.53;;;5.00;100.00
14253;BME280;7210;51.502;10.722;2024-03-07T04:03:09;100407.69;;;5.05;100.00
14253;BME280;7210;51.502;10.722;2024-03-07T04:05:38;100397.84;;;5.07;100.00
14253;BME280;7210;51.502;10.722;2024-03-07T04:08:06;100400.81;;;5.04;100.00
14253;BME280;7210;51.502;10.722;2024-03-07T04:10:35;100390.00;;;4.99;100.00
14253;BME280;7210;51.502;10.722;2024-03-07T04:13:08;100392.63;;;4.99;100.00
14253;BME280;7210;51.502;10.722;2024-03-07T04:15:38;100406.69;;;5.06;100.00
14253;BME280;7210;51.502;10.722;2024-03-07T04:18:08;100397.19;;;5.05;100.00
14253;BME280;7210;51.502;10.722;2024-03-07T04:20:35;100388.69;;;5.03;100.00
14253;BME280;7210;51.502;10.722;2024-03-07T04:23:03;100403.28;;;5.05;100.00
14253;BME280;7210;51.502;10.722;2024-03-07T04:25:31;100404.22;;;5.12;100.00
14253;BME280;7210;51.502;10.722;2024-03-07T04:28:03;100394.91;;;5.10;100.00
14253;BME280;7210;51.502;10.722;2024-03-07T04:30:31;100379.22;;;5.02;100.00
14253;BME280;7210;51.502;10.722;2024-03-07T04:32:58;100401.41;;;5.14;100.00
14253;BME280;7210;51.502;10.722;2024-03-07T04:35:25;100402.13;;;5.08;100.00
14253;BME280;7210;51.502;10.722;2024-03-07T04:37:52;100402.41;;;5.13;100.00
14253;BME280;7210;51.502;10.722;2024-03-07T04:40:21;100401.41;;;5.14;100.00
14253;BME280;7210;51.502;10.722;2024-03-07T04:42:49;100389.97;;;5.07;100.00
14253;BME280;7210;51.502;10.722;2024-03-07T04:45:17;100404.69;;;5.16;100.00
14253;BME280;7210;51.502;10.722;2024-03-07T04:47:45;100414.81;;;5.19;100.00
14253;BME280;7210;51.502;10.722;2024-03-07T04:50:14;100407.94;;;5.18;100.00
14253;BME280;7210;51.502;10.722;2024-03-07T04:52:43;100410.91;;;5.15;100.00
14253;BME280;7210;51.502;10.722;2024-03-07T04:55:11;100403.13;;;4.99;100.00
14253;BME280;7210;51.502;10.722;2024-03-07T04:57:40;100420.28;;;5.09;100.00
14253;BME280;7210;51.502;10.722;2024-03-07T05:00:09;100426.97;;;5.12;100.00
14253;BME280;7210;51.502;10.722;2024-03-07T05:02:40;100411.81;;;4.99;100.00
14253;BME280;7210;51.502;10.722;2024-03-07T05:05:07;100424.22;;;5.05;100.00
14253;BME280;7210;51.502;10.722;2024-03-07T05:07:38;100423.41;;;5.05;100.00
14253;BME280;7210;51.502;10.722;2024-03-07T05:10:07;100427.34;;;5.09;100.00
14253;BME280;7210;51.502;10.722;2024-03-07T05:12:35;100419.81;;;4.98;100.00
14253;BME280;7210;51.502;10.722;2024-03-07T05:15:05;100439.72;;;5.15;100.00
14253;BME280;7210;51.502;10.722;2024-03-07T05:17:35;100438.56;;;5.17;100.00
14253;BME280;7210;51.502;10.722;2024-03-07T05:20:06;100443.66;;;5.19;100.00
14253;BME280;7210;51.502;10.722;2024-03-07T05:22:36;100428.31;;;5.08;100.00
14253;BME280;7210;51.502;10.722;2024-03-07T05:25:06;100433.22;;;5.11;100.00
14253;BME280;7210;51.502;10.722;2024-03-07T05:27:33;100437.81;;;5.09;100.00
14253;BME280;7210;51.502;10.722;2024-03-07T05:30:04;100435.19;;;5.09;100.00
14253;BME280;7210;51.502;10.722;2024-03-07T05:32:35;100440.44;;;5.09;100.00
14253;BME280;7210;51.502;10.722;2024-03-07T05:35:02;100440.75;;;5.06;100.00
14253;BME280;7210;51.502;10.722;2024-03-07T05:37:29;100452.53;;;5.10;100.00
14253;BME280;7210;51.502;10.722;2024-03-07T05:39:57;100454.19;;;5.11;100.00
14253;BME280;7210;51.502;10.722;2024-03-07T05:42:25;100459.91;;;5.14;100.00
14253;BME280;7210;51.502;10.722;2024-03-07T05:44:52;100454.50;;;5.16;100.00
14253;BME280;7210;51.502;10.722;2024-03-07T05:47:21;100447.78;;;5.13;100.00
14253;BME280;7210;51.502;10.722;2024-03-07T05:49:48;100456.75;;;5.19;100.00
14253;BME280;7210;51.502;10.722;2024-03-07T05:52:32;100469.50;;;5.22;100.00
14253;BME280;7210;51.502;10.722;2024-03-07T05:54:59;100447.78;;;5.13;100.00
14253;BME280;7210;51.502;10.722;2024-03-07T05:57:26;100458.38;;;5.20;100.00
14253;BME280;7210;51.502;10.722;2024-03-07T05:59:53;100477.53;;;5.28;100.00
14253;BME280;7210;51.502;10.722;2024-03-07T06:02:23;100456.41;;;5.22;100.00
14253;BME280;7210;51.502;10.722;2024-03-07T06:04:56;100451.50;;;5.19;100.00
14253;BME280;7210;51.502;10.722;2024-03-07T06:07:23;100457.09;;;5.16;100.00
14253;BME280;7210;51.502;10.722;2024-03-07T06:09:50;100458.03;;;5.23;100.00
14253;BME280;7210;51.502;10.722;2024-03-07T06:12:17;100460.66;;;5.23;100.00
14253;BME280;7210;51.502;10.722;2024-03-07T06:14:44;100470.13;;;5.32;100.00
14253;BME280;7210;51.502;10.722;2024-03-07T06:17:12;100462.13;;;5.25;100.00
14253;BME280;7210;51.502;10.722;2024-03-07T06:19:41;100472.75;;;5.32;100.00
14253;BME280;7210;51.502;10.722;2024-03-07T06:22:09;100463.75;;;5.26;100.00
14253;BME280;7210;51.502;10.722;2024-03-07T06:24:36;100468.53;;;5.23;100.00
14253;BME280;7210;51.502;10.722;2024-03-07T06:27:06;100476.53;;;5.29;100.00
14253;BME280;7210;51.502;10.722;2024-03-07T06:29:44;100485.34;;;5.36;100.00
14253;BME280;7210;51.502;10.722;2024-03-07T06:32:11;100491.88;;;5.40;100.00
14253;BME280;7210;51.502;10.722;2024-03-07T06:34:40;100494.97;;;5.44;100.00
14253;BME280;7210;51.502;10.722;2024-03-07T06:37:08;100485.47;;;5.43;100.00
14253;BME280;7210;51.502;10.722;2024-03-07T06:39:35;100481.53;;;5.47;100.00
14253;BME280;7210;51.502;10.722;2024-03-07T06:42:03;100484.44;;;5.52;100.00
14253;BME280;7210;51.502;10.722;2024-03-07T06:44:31;100481.19;;;5.50;100.00
14253;BME280;7210;51.502;10.722;2024-03-07T06:47:00;100489.16;;;5.56;100.00
14253;BME280;7210;51.502;10.722;2024-03-07T06:49:32;100486.69;;;5.63;100.00
14253;BME280;7210;51.502;10.722;2024-03-07T06:52:01;100474.41;;;5.55;100.00
14253;BME280;7210;51.502;10.722;2024-03-07T06:54:28;100481.13;;;5.58;100.00
14253;BME280;7210;51.502;10.722;2024-03-07T06:56:56;100480.97;;;5.59;100.00
14253;BME280;7210;51.502;10.722;2024-03-07T06:59:23;100473.94;;;5.52;100.00
14253;BME280;7210;51.502;10.722;2024-03-07T07:01:50;100491.00;;;5.56;100.00
14253;BME280;7210;51.502;10.722;2024-03-07T07:04:20;100481.19;;;5.50;100.00
14253;BME280;7210;51.502;10.722;2024-03-07T07:06:48;100498.50;;;5.59;100.00
14253;BME280;7210;51.502;10.722;2024-03-07T07:09:22;100496.19;;;5.64;100.00
14253;BME280;7210;51.502;10.722;2024-03-07T07:11:50;100489.84;;;5.58;100.00
14253;BME280;7210;51.502;10.722;2024-03-07T07:14:18;100493.41;;;5.57;100.00
14253;BME280;7210;51.502;10.722;2024-03-07T07:16:46;100483.28;;;5.54;100.00
14253;BME280;7210;51.502;10.722;2024-03-07T07:19:13;100476.94;;;5.49;100.00
14253;BME280;7210;51.502;10.722;2024-03-07T07:21:40;100488.00;;;5.59;100.00
14253;BME280;7210;51.502;10.722;2024-03-07T07:24:08;100504.63;;;5.74;100.00
14253;BME280;7210;51.502;10.722;2024-03-07T07:26:36;100495.44;;;5.78;100.00
14253;BME280;7210;51.502;10.722;2024-03-07T07:29:04;100500.94;;;5.91;100.00
14253;BME280;7210;51.502;10.722;2024-03-07T07:31:32;100502.81;;;6.05;100.00
14253;BME280;7210;51.502;10.722;2024-03-07T07:33:59;100487.44;;;6.02;100.00
14253;BME280;7210;51.502;10.722;2024-03-07T07:36:26;100489.81;;;6.11;100.00
14253;BME280;7210;51.502;10.722;2024-03-07T07:38:53;100489.63;;;6.13;100.00
14253;BME280;7210;51.502;10.722;2024-03-07T07:41:20;100466.53;;;6.08;100.00
14253;BME280;7210;51.502;10.722;2024-03-07T07:43:50;100467.72;;;6.06;100.00
14253;BME280;7210;51.502;10.722;2024-03-07T07:46:17;100478.06;;;6.22;100.00
14253;BME280;7210;51.502;10.722;2024-03-07T07:48:44;100478.66;;;6.32;100.00
14253;BME280;7210;51.502;10.722;2024-03-07T07:51:11;100450.66;;;6.24;100.00
14253;BME280;7210;51.502;10.722;2024-03-07T07:53:38;100468.53;;;6.43;100.00
14253;BME280;7210;51.502;10.722;2024-03-07T07:56:07;100441.91;;;6.32;100.00
14253;BME280;7210;51.502;10.722;2024-03-07T07:58:35;100440.06;;;6.18;100.00
14253;BME280;7210;51.502;10.722;2024-03-07T08:01:03;100441.75;;;6.11;100.00
14253;BME280;7210;51.502;10.722;2024-03-07T08:03:33;100443.00;;;6.15;100.00
14253;BME280;7210;51.502;10.722;2024-03-07T08:06:01;100454.66;;;6.20;100.00
14253;BME280;7210;51.502;10.722;2024-03-07T08:08:29;100451.81;;;6.22;100.00
14253;BME280;7210;51.502;10.722;2024-03-07T08:10:56;100452.41;;;6.32;100.00
14253;BME280;7210;51.502;10.722;2024-03-07T08:13:24;100467.09;;;6.41;100.00
14253;BME280;7210;51.502;10.722;2024-03-07T08:15:51;100455.84;;;6.47;100.00
14253;BME280;7210;51.502;10.722;2024-03-07T08:18:21;100475.28;;;6.75;100.00
14253;BME280;7210;51.502;10.722;2024-03-07T08:20:50;100480.72;;;6.88;100.00
14253;BME280;7210;51.502;10.722;2024-03-07T08:23:17;100481.09;;;6.99;100.00
14253;BME280;7210;51.502;10.722;2024-03-07T08:25:44;100466.78;;;7.02;100.00
14253;BME280;7210;51.502;10.722;2024-03-07T08:28:11;100473.91;;;7.08;100.00
14253;BME280;7210;51.502;10.722;2024-03-07T08:30:38;100469.09;;;7.11;100.00
14253;BME280;7210;51.502;10.722;2024-03-07T08:33:06;100453.25;;;7.05;100.00
14253;BME280;7210;51.502;10.722;2024-03-07T08:35:35;100465.13;;;7.15;100.00
14253;BME280;7210;51.502;10.722;2024-03-07T08:38:02;100452.53;;;7.11;100.00
14253;BME280;7210;51.502;10.722;2024-03-07T08:40:33;100458.59;;;7.11;100.00
14253;BME280;7210;51.502;10.722;2024-03-07T08:43:03;100441.56;;;6.93;99.33
14253;BME280;7210;51.502;10.722;2024-03-07T08:45:33;100468.56;;;7.01;99.30
14253;BME280;7210;51.502;10.722;2024-03-07T08:48:03;100459.22;;;6.99;98.76
14253;BME280;7210;51.502;10.722;2024-03-07T08:50:31;100462.84;;;7.12;98.27
14253;BME280;7210;51.502;10.722;2024-03-07T08:53:01;100468.28;;;7.25;97.47
14253;BME280;7210;51.502;10.722;2024-03-07T08:55:28;100456.06;;;7.18;96.88
14253;BME280;7210;51.502;10.722;2024-03-07T08:57:55;100433.28;;;7.10;96.49
14253;BME280;7210;51.502;10.722;2024-03-07T09:00:23;100433.91;;;7.12;95.39
14253;BME280;7210;51.502;10.722;2024-03-07T09:02:52;100437.81;;;7.16;94.96
14253;BME280;7210;51.502;10.722;2024-03-07T09:05:20;100448.69;;;7.28;94.13
14253;BME280;7210;51.502;10.722;2024-03-07T09:07:48;100445.31;;;7.33;93.83
14253;BME280;7210;51.502;10.722;2024-03-07T09:10:17;100424.72;;;7.37;93.01
14253;BME280;7210;51.502;10.722;2024-03-07T09:12:45;100430.00;;;7.37;92.55
14253;BME280;7210;51.502;10.722;2024-03-07T09:15:14;100425.53;;;7.37;92.02
14253;BME280;7210;51.502;10.722;2024-03-07T09:17:44;100423.00;;;7.29;91.63
14253;BME280;7210;51.502;10.722;2024-03-07T09:20:13;100408.06;;;7.30;90.89
14253;BME280;7210;51.502;10.722;2024-03-07T09:22:41;100398.66;;;7.21;90.19
14253;BME280;7210;51.502;10.722;2024-03-07T09:25:09;100399.84;;;7.19;89.83
14253;BME280;7210;51.502;10.722;2024-03-07T09:27:40;100419.25;;;7.18;89.55
14253;BME280;7210;51.502;10.722;2024-03-07T09:30:08;100448.97;;;7.32;89.34
14253;BME280;7210;51.502;10.722;2024-03-07T09:32:39;100466.44;;;7.40;89.50
14253;BME280;7210;51.502;10.722;2024-03-07T09:35:08;100446.50;;;7.31;88.90
14253;BME280;7210;51.502;10.722;2024-03-07T09:37:39;100450.03;;;7.38;88.52
14253;BME280;7210;51.502;10.722;2024-03-07T09:40:08;100447.19;;;7.39;88.04
14253;BME280;7210;51.502;10.722;2024-03-07T09:42:45;100451.09;;;7.43;87.60
14253;BME280;7210;51.502;10.722;2024-03-07T09:45:18;100440.69;;;7.35;87.25
14253;BME280;7210;51.502;10.722;2024-03-07T09:47:47;100467.25;;;7.40;87.27
14253;BME280;7210;51.502;10.722;2024-03-07T09:50:16;100466.50;;;7.46;87.13
14253;BME280;7210;51.502;10.722;2024-03-07T09:52:46;100426.19;;;7.25;86.54
14253;BME280;7210;51.502;10.722;2024-03-07T09:55:16;100460.63;;;7.44;86.33
14253;BME280;7210;51.502;10.722;2024-03-07T09:57:53;100477.75;;;7.55;86.12
14253;BME280;7210;51.502;10.722;2024-03-07T10:00:27;100470.22;;;7.52;85.66
14253;BME280;7210;51.502;10.722;2024-03-07T10:02:58;100473.31;;;7.55;85.56
14253;BME280;7210;51.502;10.722;2024-03-07T10:05:27;100468.66;;;7.57;85.40
14253;BME280;7210;51.502;10.722;2024-03-07T10:07:55;100468.78;;;7.70;84.55
14253;BME280;7210;51.502;10.722;2024-03-07T10:10:23;100414.28;;;7.64;83.72
14253;BME280;7210;51.502;10.722;2024-03-07T10:12:52;100380.84;;;7.58;82.14
14253;BME280;7210;51.502;10.722;2024-03-07T10:15:20;100320.31;;;7.37;82.01
14253;BME280;7210;51.502;10.722;2024-03-07T10:17:50;100358.91;;;7.51;81.57
14253;BME280;7210;51.502;10.722;2024-03-07T10:20:19;100352.38;;;7.47;81.32
14253;BME280;7210;51.502;10.722;2024-03-07T10:22:48;100349.88;;;7.39;81.36
14253;BME280;7210;51.502;10.722;2024-03-07T10:25:17;100312.94;;;7.27;80.66
14253;BME280;7210;51.502;10.722;2024-03-07T10:27:47;100302.66;;;7.31;79.81
14253;BME280;7210;51.502;10.722;2024-03-07T10:30:16;100306.50;;;7.29;79.61
14253;BME280;7210;51.502;10.722;2024-03-07T10:32:47;100251.44;;;7.07;79.24
14253;BME280;7210;51.502;10.722;2024-03-07T10:35:21;100265.84;;;7.11;78.43
14253;BME280;7210;51.502;10.722;2024-03-07T10:37:50;100249.56;;;7.01;78.06
14253;BME280;7210;51.502;10.722;2024-03-07T10:40:19;100247.50;;;6.96;78.00
14253;BME280;7210;51.502;10.722;2024-03-07T10:42:48;100236.53;;;6.93;77.54
14253;BME280;7210;51.502;10.722;2024-03-07T10:45:21;100292.94;;;7.11;77.46
14253;BME280;7210;51.502;10.722;2024-03-07T10:47:58;100331.97;;;7.28;77.69
14253;BME280;7210;51.502;10.722;2024-03-07T10:50:43;100324.38;;;7.40;76.87
14253;BME280;7210;51.502;10.722;2024-03-07T10:53:24;100278.97;;;7.31;76.29
14253;BME280;7210;51.502;10.722;2024-03-07T10:56:21;100255.06;;;7.27;75.91
14253;BME280;7210;51.502;10.722;2024-03-07T10:58:58;100257.31;;;7.29;75.56
14253;BME280;7210;51.502;10.722;2024-03-07T11:01:31;100245.22;;;7.35;74.57
14253;BME280;7210;51.502;10.722;2024-03-07T11:04:03;100256.81;;;7.40;74.45
14253;BME280;7210;51.502;10.722;2024-03-07T11:06:33;100303.25;;;7.54;74.30
14253;BME280;7210;51.502;10.722;2024-03-07T11:09:03;100353.94;;;7.84;74.48
14253;BME280;7210;51.502;10.722;2024-03-07T11:11:38;100364.69;;;8.16;73.36
14253;BME280;7210;51.502;10.722;2024-03-07T11:14:09;100351.41;;;8.24;73.53
14253;BME280;7210;51.502;10.722;2024-03-07T11:16:40;100347.44;;;8.35;72.79
14253;BME280;7210;51.502;10.722;2024-03-07T11:19:24;100394.97;;;8.54;72.90
14253;BME280;7210;51.502;10.722;2024-03-07T11:21:57;100425.06;;;8.66;72.74
14253;BME280;7210;51.502;10.722;2024-03-07T11:24:28;100440.16;;;8.85;72.67
14253;BME280;7210;51.502;10.722;2024-03-07T11:26:58;100327.34;;;8.68;71.16
14253;BME280;7210;51.502;10.722;2024-03-07T11:29:48;100203.53;;;8.27;70.28
14253;BME280;7210;51.502;10.722;2024-03-07T11:32:20;100136.09;;;7.92;70.10
14253;BME280;7210;51.502;10.722;2024-03-07T11:34:48;100108.88;;;7.72;69.69
14253;BME280;7210;51.502;10.722;2024-03-07T11:37:20;100135.72;;;7.61;70.06
14253;BME280;7210;51.502;10.722;2024-03-07T11:40:08;100167.72;;;7.65;70.02
14253;BME280;7210;51.502;10.722;2024-03-07T11:42:46;100170.53;;;7.57;70.43
14253;BME280;7210;51.502;10.722;2024-03-07T11:45:15;100189.75;;;7.57;70.21
14253;BME280;7210;51.502;10.722;2024-03-07T11:47:53;100185.34;;;7.64;69.41
14253;BME280;7210;51.502;10.722;2024-03-07T11:50:26;100176.50;;;7.44;70.13
14253;BME280;7210;51.502;10.722;2024-03-07T11:52:54;100262.69;;;7.63;70.73
14253;BME280;7210;51.502;10.722;2024-03-07T11:55:22;100268.78;;;7.70;70.04
14253;BME280;7210;51.502;10.722;2024-03-07T11:57:50;100259.06;;;7.71;69.72
14253;BME280;7210;51.502;10.722;2024-03-07T12:00:21;100233.78;;;7.76;69.06
14253;BME280;7210;51.502;10.722;2024-03-07T12:02:54;100240.69;;;7.77;69.33
14253;BME280;7210;51.502;10.722;2024-03-07T12:05:21;100301.19;;;7.98;69.35
14253;BME280;7210;51.502;10.722;2024-03-07T12:07:48;100316.31;;;8.17;69.21
14253;BME280;7210;51.502;10.722;2024-03-07T12:10:15;100349.91;;;8.43;68.84
14253;BME280;7210;51.502;10.722;2024-03-07T12:12:50;100388.53;;;8.63;69.04
14253;BME280;7210;51.502;10.722;2024-03-07T12:15:17;100349.84;;;8.70;68.49
14253;BME280;7210;51.502;10.722;2024-03-07T12:17:52;100295.75;;;8.74;67.43
14253;BME280;7210;51.502;10.722;2024-03-07T12:20:20;100382.06;;;9.06;68.27
14253;BME280;7210;51.502;10.722;2024-03-07T12:22:57;100407.91;;;9.30;67.92
14253;BME280;7210;51.502;10.722;2024-03-07T12:25:27;100353.31;;;9.37;66.93
14253;BME280;7210;51.502;10.722;2024-03-07T12:28:06;100228.06;;;9.07;66.24
14253;BME280;7210;51.502;10.722;2024-03-07T12:30:48;100165.97;;;8.79;65.88
14253;BME280;7210;51.502;10.722;2024-03-07T12:33:19;100214.25;;;8.92;65.83
14253;BME280;7210;51.502;10.722;2024-03-07T12:35:47;100229.28;;;8.98;65.95
14253;BME280;7210;51.502;10.722;2024-03-07T12:38:16;100306.44;;;9.26;65.97
14253;BME280;7210;51.502;10.722;2024-03-07T12:40:43;100226.25;;;9.14;65.39
14253;BME280;7210;51.502;10.722;2024-03-07T12:43:16;100122.56;;;8.88;64.68
14253;BME280;7210;51.502;10.722;2024-03-07T12:45:48;100099.66;;;8.69;65.08
14253;BME280;7210;51.502;10.722;2024-03-07T12:48:15;100068.19;;;8.48;65.09
14253;BME280;7210;51.502;10.722;2024-03-07T12:50:45;100091.72;;;8.49;64.80
14253;BME280;7210;51.502;10.722;2024-03-07T12:53:13;100029.88;;;8.19;64.98
14253;BME280;7210;51.502;10.722;2024-03-07T12:55:40;100050.03;;;7.93;65.22
14253;BME280;7210;51.502;10.722;2024-03-07T12:58:08;100062.38;;;7.86;65.41
14253;BME280;7210;51.502;10.722;2024-03-07T13:00:37;100072.81;;;7.66;65.92
14253;BME280;7210;51.502;10.722;2024-03-07T13:03:07;100106.78;;;7.61;65.94